sensor_id;sensor_type;location;lat;lon;timestamp;P1;durP1;ratioP1;P2;durP2;ratioP2
62268;SDS011;56517;51.634;5.566;2022-12-18T00:02:29;64.32;;;24.40;;
62268;SDS011;56517;51.634;5.566;2022-12-18T00:07:30;65.88;;;27.85;;
62268;SDS011;56517;51.634;5.566;2022-12-18T00:12:30;68.43;;;23.00;;
62268;SDS011;56517;51.634;5.566;2022-12-18T00:17:31;73.10;;;28.15;;
62268;SDS011;56517;51.634;5.566;2022-12-18T00:22:31;71.95;;;28.85;;
62268;SDS011;56517;51.634;5.566;2022-12-18T00:27:32;78.20;;;26.23;;
62268;SDS011;56517;51.634;5.566;2022-12-18T00:32:32;56.88;;;25.83;;
62268;SDS011;56517;51.634;5.566;2022-12-18T00:37:33;82.00;;;28.10;;
62268;SDS011;56517;51.634;5.566;2022-12-18T00:42:36;77.63;;;28.40;;
62268;SDS011;56517;51.634;5.566;2022-12-18T00:47:37;70.97;;;25.02;;
62268;SDS011;56517;51.634;5.566;2022-12-18T00:52:41;77.55;;;28.23;;
62268;SDS011;56517;51.634;5.566;2022-12-18T00:57:41;91.72;;;33.97;;
62268;SDS011;56517;51.634;5.566;2022-12-18T01:02:42;60.47;;;25.02;;
62268;SDS011;56517;51.634;5.566;2022-12-18T01:07:42;67.55;;;24.30;;
62268;SDS011;56517;51.634;5.566;2022-12-18T01:12:43;64.88;;;25.02;;
62268;SDS011;56517;51.634;5.566;2022-12-18T01:17:44;62.95;;;25.55;;
62268;SDS011;56517;51.634;5.566;2022-12-18T01:22:44;58.70;;;24.80;;
62268;SDS011;56517;51.634;5.566;2022-12-18T01:27:45;60.00;;;25.85;;
62268;SDS011;56517;51.634;5.566;2022-12-18T01:32:45;51.63;;;22.35;;
62268;SDS011;56517;51.634;5.566;2022-12-18T01:37:46;59.15;;;23.30;;
62268;SDS011;56517;51.634;5.566;2022-12-18T01:42:52;52.50;;;22.73;;
62268;SDS011;56517;51.634;5.566;2022-12-18T01:47:54;60.25;;;23.65;;
62268;SDS011;56517;51.634;5.566;2022-12-18T01:57:59;44.88;;;20.60;;
62268;SDS011;56517;51.634;5.566;2022-12-18T02:03:00;52.90;;;21.20;;
62268;SDS011;56517;51.634;5.566;2022-12-18T02:08:11;51.83;;;20.63;;
62268;SDS011;56517;51.634;5.566;2022-12-18T02:18:36;42.42;;;18.33;;
62268;SDS011;56517;51.634;5.566;2022-12-18T02:28:40;50.28;;;21.23;;
62268;SDS011;56517;51.634;5.566;2022-12-18T02:33:41;43.20;;;18.65;;
62268;SDS011;56517;51.634;5.566;2022-12-18T02:38:43;43.65;;;21.27;;
62268;SDS011;56517;51.634;5.566;2022-12-18T02:43:58;55.78;;;22.05;;
62268;SDS011;56517;51.634;5.566;2022-12-18T02:59:30;33.00;;;17.58;;
62268;SDS011;56517;51.634;5.566;2022-12-18T03:04:43;36.85;;;18.33;;
62268;SDS011;56517;51.634;5.566;2022-12-18T03:09:46;40.47;;;18.27;;
62268;SDS011;56517;51.634;5.566;2022-12-18T03:14:49;44.67;;;21.17;;
62268;SDS011;56517;51.634;5.566;2022-12-18T03:19:51;37.25;;;18.13;;
62268;SDS011;56517;51.634;5.566;2022-12-18T03:24:53;36.70;;;17.40;;
62268;SDS011;56517;51.634;5.566;2022-12-18T03:30:16;34.70;;;18.23;;
62268;SDS011;56517;51.634;5.566;2022-12-18T03:35:19;45.70;;;21.65;;
62268;SDS011;56517;51.634;5.566;2022-12-18T03:40:21;54.03;;;28.10;;
62268;SDS011;56517;51.634;5.566;2022-12-18T03:45:41;62.78;;;29.88;;
62268;SDS011;56517;51.634;5.566;2022-12-18T03:55:46;59.42;;;26.65;;
62268;SDS011;56517;51.634;5.566;2022-12-18T04:00:47;65.60;;;34.90;;
62268;SDS011;56517;51.634;5.566;2022-12-18T04:05:50;65.57;;;33.35;;
62268;SDS011;56517;51.634;5.566;2022-12-18T04:10:51;58.22;;;29.17;;
62268;SDS011;56517;51.634;5.566;2022-12-18T04:15:52;67.47;;;33.40;;
62268;SDS011;56517;51.634;5.566;2022-12-18T04:20:52;78.47;;;38.08;;
62268;SDS011;56517;51.634;5.566;2022-12-18T04:25:53;69.45;;;33.03;;
62268;SDS011;56517;51.634;5.566;2022-12-18T04:30:53;57.47;;;29.55;;
62268;SDS011;56517;51.634;5.566;2022-12-18T04:35:54;57.42;;;26.02;;
62268;SDS011;56517;51.634;5.566;2022-12-18T04:40:54;36.92;;;21.52;;
62268;SDS011;56517;51.634;5.566;2022-12-18T04:46:04;35.83;;;18.60;;
62268;SDS011;56517;51.634;5.566;2022-12-18T04:51:06;37.40;;;18.67;;
62268;SDS011;56517;51.634;5.566;2022-12-18T04:56:10;38.95;;;20.13;;
62268;SDS011;56517;51.634;5.566;2022-12-18T05:01:12;23.75;;;14.20;;
62268;SDS011;56517;51.634;5.566;2022-12-18T05:06:13;24.23;;;13.27;;
62268;SDS011;56517;51.634;5.566;2022-12-18T05:11:14;30.27;;;14.52;;
62268;SDS011;56517;51.634;5.566;2022-12-18T05:16:15;22.38;;;14.30;;
62268;SDS011;56517;51.634;5.566;2022-12-18T05:21:15;21.65;;;12.50;;
62268;SDS011;56517;51.634;5.566;2022-12-18T05:26:16;35.58;;;17.73;;
62268;SDS011;56517;51.634;5.566;2022-12-18T05:31:17;21.02;;;13.43;;
62268;SDS011;56517;51.634;5.566;2022-12-18T05:36:17;30.42;;;14.98;;
62268;SDS011;56517;51.634;5.566;2022-12-18T05:41:18;26.55;;;14.30;;
62268;SDS011;56517;51.634;5.566;2022-12-18T05:46:19;29.02;;;14.30;;
62268;SDS011;56517;51.634;5.566;2022-12-18T05:51:20;29.60;;;16.10;;
62268;SDS011;56517;51.634;5.566;2022-12-18T05:56:22;29.25;;;14.18;;
62268;SDS011;56517;51.634;5.566;2022-12-18T06:01:24;27.65;;;15.25;;
62268;SDS011;56517;51.634;5.566;2022-12-18T06:06:25;29.63;;;17.25;;
62268;SDS011;56517;51.634;5.566;2022-12-18T06:11:26;43.42;;;22.85;;
62268;SDS011;56517;51.634;5.566;2022-12-18T06:16:27;55.33;;;27.13;;
62268;SDS011;56517;51.634;5.566;2022-12-18T06:21:28;63.83;;;29.60;;
62268;SDS011;56517;51.634;5.566;2022-12-18T06:26:29;50.25;;;24.98;;
62268;SDS011;56517;51.634;5.566;2022-12-18T06:31:29;49.85;;;23.73;;
62268;SDS011;56517;51.634;5.566;2022-12-18T06:36:30;64.15;;;29.73;;
62268;SDS011;56517;51.634;5.566;2022-12-18T06:41:30;39.42;;;22.75;;
62268;SDS011;56517;51.634;5.566;2022-12-18T06:46:31;57.45;;;29.42;;
62268;SDS011;56517;51.634;5.566;2022-12-18T06:51:31;49.85;;;28.67;;
62268;SDS011;56517;51.634;5.566;2022-12-18T06:56:32;61.72;;;33.33;;
62268;SDS011;56517;51.634;5.566;2022-12-18T07:01:32;57.65;;;29.15;;
62268;SDS011;56517;51.634;5.566;2022-12-18T07:06:33;53.60;;;27.30;;
62268;SDS011;56517;51.634;5.566;2022-12-18T07:11:33;69.57;;;32.13;;
62268;SDS011;56517;51.634;5.566;2022-12-18T07:16:34;41.88;;;21.13;;
62268;SDS011;56517;51.634;5.566;2022-12-18T07:21:36;38.75;;;20.13;;
62268;SDS011;56517;51.634;5.566;2022-12-18T07:26:36;23.90;;;13.07;;
62268;SDS011;56517;51.634;5.566;2022-12-18T07:31:37;32.35;;;17.45;;
62268;SDS011;56517;51.634;5.566;2022-12-18T07:36:38;38.30;;;19.48;;
62268;SDS011;56517;51.634;5.566;2022-12-18T07:41:38;32.42;;;14.75;;
62268;SDS011;56517;51.634;5.566;2022-12-18T07:46:39;31.15;;;16.52;;
62268;SDS011;56517;51.634;5.566;2022-12-18T07:51:40;30.08;;;16.92;;
62268;SDS011;56517;51.634;5.566;2022-12-18T07:56:40;33.35;;;17.20;;
62268;SDS011;56517;51.634;5.566;2022-12-18T08:01:41;29.73;;;16.17;;
62268;SDS011;56517;51.634;5.566;2022-12-18T08:06:41;32.45;;;18.55;;
62268;SDS011;56517;51.634;5.566;2022-12-18T08:11:42;28.20;;;14.73;;
62268;SDS011;56517;51.634;5.566;2022-12-18T08:16:42;48.50;;;23.25;;
62268;SDS011;56517;51.634;5.566;2022-12-18T08:21:43;37.35;;;17.73;;
62268;SDS011;56517;51.634;5.566;2022-12-18T08:26:43;42.92;;;19.73;;
62268;SDS011;56517;51.634;5.566;2022-12-18T08:31:44;50.38;;;21.63;;
62268;SDS011;56517;51.634;5.566;2022-12-18T08:36:44;37.17;;;19.08;;
62268;SDS011;56517;51.634;5.566;2022-12-18T08:41:45;36.65;;;16.55;;
62268;SDS011;56517;51.634;5.566;2022-12-18T08:46:45;41.65;;;18.25;;
62268;SDS011;56517;51.634;5.566;2022-12-18T08:51:46;30.67;;;17.15;;
62268;SDS011;56517;51.634;5.566;2022-12-18T08:56:47;43.83;;;20.98;;
62268;SDS011;56517;51.634;5.566;2022-12-18T09:01:47;29.88;;;15.27;;
62268;SDS011;56517;51.634;5.566;2022-12-18T09:06:48;34.05;;;17.02;;
62268;SDS011;56517;51.634;5.566;2022-12-18T09:11:48;38.75;;;20.27;;
62268;SDS011;56517;51.634;5.566;2022-12-18T09:16:49;41.67;;;20.88;;
62268;SDS011;56517;51.634;5.566;2022-12-18T09:21:50;40.10;;;20.27;;
62268;SDS011;56517;51.634;5.566;2022-12-18T09:26:54;41.95;;;20.73;;
62268;SDS011;56517;51.634;5.566;2022-12-18T09:31:54;32.15;;;16.70;;
62268;SDS011;56517;51.634;5.566;2022-12-18T09:36:55;33.90;;;19.38;;
62268;SDS011;56517;51.634;5.566;2022-12-18T09:41:56;40.33;;;21.25;;
62268;SDS011;56517;51.634;5.566;2022-12-18T09:52:37;39.22;;;19.77;;
62268;SDS011;56517;51.634;5.566;2022-12-18T09:57:41;35.80;;;19.10;;
62268;SDS011;56517;51.634;5.566;2022-12-18T10:02:42;33.13;;;19.02;;
62268;SDS011;56517;51.634;5.566;2022-12-18T10:07:59;30.08;;;16.35;;
62268;SDS011;56517;51.634;5.566;2022-12-18T10:18:06;37.45;;;19.13;;
62268;SDS011;56517;51.634;5.566;2022-12-18T10:23:21;28.30;;;16.80;;
62268;SDS011;56517;51.634;5.566;2022-12-18T10:28:25;47.95;;;28.83;;
62268;SDS011;56517;51.634;5.566;2022-12-18T10:33:30;30.13;;;17.88;;
62268;SDS011;56517;51.634;5.566;2022-12-18T10:38:31;31.30;;;16.95;;
62268;SDS011;56517;51.634;5.566;2022-12-18T10:43:38;36.10;;;18.83;;
62268;SDS011;56517;51.634;5.566;2022-12-18T10:48:40;32.70;;;18.52;;
62268;SDS011;56517;51.634;5.566;2022-12-18T10:54:32;23.45;;;13.48;;
62268;SDS011;56517;51.634;5.566;2022-12-18T10:59:14;36.85;;;20.20;;
62268;SDS011;56517;51.634;5.566;2022-12-18T11:04:19;28.67;;;16.67;;
62268;SDS011;56517;51.634;5.566;2022-12-18T11:09:21;36.28;;;20.40;;
62268;SDS011;56517;51.634;5.566;2022-12-18T11:19:33;28.83;;;16.42;;
62268;SDS011;56517;51.634;5.566;2022-12-18T11:24:34;38.63;;;23.13;;
62268;SDS011;56517;51.634;5.566;2022-12-18T11:29:36;33.28;;;18.52;;
62268;SDS011;56517;51.634;5.566;2022-12-18T11:34:37;29.25;;;17.60;;
62268;SDS011;56517;51.634;5.566;2022-12-18T11:39:42;36.22;;;20.95;;
62268;SDS011;56517;51.634;5.566;2022-12-18T11:44:51;33.85;;;19.25;;
62268;SDS011;56517;51.634;5.566;2022-12-18T11:49:52;37.75;;;20.42;;
62268;SDS011;56517;51.634;5.566;2022-12-18T11:54:56;35.30;;;17.52;;
62268;SDS011;56517;51.634;5.566;2022-12-18T12:41:04;35.10;;;18.48;;
62268;SDS011;56517;51.634;5.566;2022-12-18T12:46:09;39.03;;;21.40;;
62268;SDS011;56517;51.634;5.566;2022-12-18T12:51:16;36.78;;;18.77;;
62268;SDS011;56517;51.634;5.566;2022-12-18T12:56:18;36.85;;;19.77;;
62268;SDS011;56517;51.634;5.566;2022-12-18T13:06:33;35.93;;;19.03;;
62268;SDS011;56517;51.634;5.566;2022-12-18T13:11:38;33.00;;;18.75;;
62268;SDS011;56517;51.634;5.566;2022-12-18T13:16:39;36.35;;;18.90;;
62268;SDS011;56517;51.634;5.566;2022-12-18T13:21:39;30.25;;;17.45;;
62268;SDS011;56517;51.634;5.566;2022-12-18T13:26:40;36.90;;;19.10;;
62268;SDS011;56517;51.634;5.566;2022-12-18T13:36:41;38.42;;;19.45;;
62268;SDS011;56517;51.634;5.566;2022-12-18T13:41:42;34.03;;;19.95;;
62268;SDS011;56517;51.634;5.566;2022-12-18T13:46:43;33.08;;;18.77;;
62268;SDS011;56517;51.634;5.566;2022-12-18T13:51:46;27.02;;;16.35;;
62268;SDS011;56517;51.634;5.566;2022-12-18T13:56:48;33.88;;;20.08;;
62268;SDS011;56517;51.634;5.566;2022-12-18T14:01:51;34.60;;;18.20;;
62268;SDS011;56517;51.634;5.566;2022-12-18T14:06:53;36.53;;;18.75;;
62268;SDS011;56517;51.634;5.566;2022-12-18T14:11:55;30.67;;;16.98;;
62268;SDS011;56517;51.634;5.566;2022-12-18T14:16:56;37.25;;;18.75;;
62268;SDS011;56517;51.634;5.566;2022-12-18T14:21:57;34.10;;;17.77;;
62268;SDS011;56517;51.634;5.566;2022-12-18T14:26:57;26.58;;;15.20;;
62268;SDS011;56517;51.634;5.566;2022-12-18T14:32:13;29.60;;;16.17;;
62268;SDS011;56517;51.634;5.566;2022-12-18T14:37:15;36.35;;;18.27;;
62268;SDS011;56517;51.634;5.566;2022-12-18T14:42:16;31.50;;;17.10;;
62268;SDS011;56517;51.634;5.566;2022-12-18T14:47:17;28.90;;;16.45;;
62268;SDS011;56517;51.634;5.566;2022-12-18T14:52:23;28.63;;;17.52;;
62268;SDS011;56517;51.634;5.566;2022-12-18T14:57:35;49.08;;;23.95;;
62268;SDS011;56517;51.634;5.566;2022-12-18T15:02:36;50.20;;;25.40;;
62268;SDS011;56517;51.634;5.566;2022-12-18T15:07:41;33.92;;;19.65;;
62268;SDS011;56517;51.634;5.566;2022-12-18T15:12:42;39.30;;;18.58;;
62268;SDS011;56517;51.634;5.566;2022-12-18T15:17:43;39.65;;;24.77;;
62268;SDS011;56517;51.634;5.566;2022-12-18T15:22:44;38.90;;;18.73;;
62268;SDS011;56517;51.634;5.566;2022-12-18T15:27:47;35.70;;;20.08;;
62268;SDS011;56517;51.634;5.566;2022-12-18T15:32:48;29.70;;;17.52;;
62268;SDS011;56517;51.634;5.566;2022-12-18T15:37:49;36.42;;;19.25;;
62268;SDS011;56517;51.634;5.566;2022-12-18T15:42:51;35.75;;;17.95;;
62268;SDS011;56517;51.634;5.566;2022-12-18T15:47:53;32.20;;;17.83;;
62268;SDS011;56517;51.634;5.566;2022-12-18T15:52:54;36.35;;;18.95;;
62268;SDS011;56517;51.634;5.566;2022-12-18T15:57:54;33.70;;;18.33;;
62268;SDS011;56517;51.634;5.566;2022-12-18T16:02:55;32.92;;;17.15;;
62268;SDS011;56517;51.634;5.566;2022-12-18T16:07:56;33.95;;;18.08;;
62268;SDS011;56517;51.634;5.566;2022-12-18T16:12:56;37.72;;;20.67;;
62268;SDS011;56517;51.634;5.566;2022-12-18T16:17:57;26.85;;;15.50;;
62268;SDS011;56517;51.634;5.566;2022-12-18T16:22:57;36.95;;;19.67;;
62268;SDS011;56517;51.634;5.566;2022-12-18T16:27:58;43.13;;;23.42;;
62268;SDS011;56517;51.634;5.566;2022-12-18T16:32:58;61.72;;;38.17;;
62268;SDS011;56517;51.634;5.566;2022-12-18T16:37:59;32.92;;;18.38;;
62268;SDS011;56517;51.634;5.566;2022-12-18T16:42:59;34.65;;;18.67;;
62268;SDS011;56517;51.634;5.566;2022-12-18T16:48:00;36.83;;;20.50;;
62268;SDS011;56517;51.634;5.566;2022-12-18T16:53:00;39.35;;;19.80;;
62268;SDS011;56517;51.634;5.566;2022-12-18T16:58:01;40.40;;;20.92;;
62268;SDS011;56517;51.634;5.566;2022-12-18T17:03:01;32.35;;;18.45;;
62268;SDS011;56517;51.634;5.566;2022-12-18T17:08:02;30.92;;;18.90;;
62268;SDS011;56517;51.634;5.566;2022-12-18T17:13:04;29.40;;;16.25;;
62268;SDS011;56517;51.634;5.566;2022-12-18T17:18:04;31.23;;;18.20;;
62268;SDS011;56517;51.634;5.566;2022-12-18T17:23:05;40.78;;;17.88;;
62268;SDS011;56517;51.634;5.566;2022-12-18T17:28:06;37.15;;;18.52;;
62268;SDS011;56517;51.634;5.566;2022-12-18T17:33:06;42.80;;;23.27;;
62268;SDS011;56517;51.634;5.566;2022-12-18T17:38:07;35.95;;;17.35;;
62268;SDS011;56517;51.634;5.566;2022-12-18T17:43:08;32.95;;;17.38;;
62268;SDS011;56517;51.634;5.566;2022-12-18T17:48:08;36.85;;;19.90;;
62268;SDS011;56517;51.634;5.566;2022-12-18T17:53:10;27.08;;;15.90;;
62268;SDS011;56517;51.634;5.566;2022-12-18T17:58:10;32.95;;;18.13;;
62268;SDS011;56517;51.634;5.566;2022-12-18T18:03:11;33.85;;;17.92;;
62268;SDS011;56517;51.634;5.566;2022-12-18T18:08:11;37.30;;;17.65;;
62268;SDS011;56517;51.634;5.566;2022-12-18T18:13:20;30.90;;;16.63;;
62268;SDS011;56517;51.634;5.566;2022-12-18T18:18:20;33.72;;;19.23;;
62268;SDS011;56517;51.634;5.566;2022-12-18T18:23:24;36.03;;;20.75;;
62268;SDS011;56517;51.634;5.566;2022-12-18T18:28:25;38.42;;;21.80;;
62268;SDS011;56517;51.634;5.566;2022-12-18T18:33:26;40.75;;;20.85;;
62268;SDS011;56517;51.634;5.566;2022-12-18T18:38:27;34.22;;;18.05;;
62268;SDS011;56517;51.634;5.566;2022-12-18T18:43:27;40.38;;;20.25;;
62268;SDS011;56517;51.634;5.566;2022-12-18T18:48:33;39.35;;;21.58;;
62268;SDS011;56517;51.634;5.566;2022-12-18T18:53:35;37.10;;;18.95;;
62268;SDS011;56517;51.634;5.566;2022-12-18T18:58:36;37.30;;;19.60;;
62268;SDS011;56517;51.634;5.566;2022-12-18T19:03:37;40.33;;;20.88;;
62268;SDS011;56517;51.634;5.566;2022-12-18T19:08:37;39.83;;;21.70;;
62268;SDS011;56517;51.634;5.566;2022-12-18T19:13:38;41.60;;;19.55;;
62268;SDS011;56517;51.634;5.566;2022-12-18T19:18:39;40.05;;;21.08;;
62268;SDS011;56517;51.634;5.566;2022-12-18T19:23:39;48.33;;;24.52;;
62268;SDS011;56517;51.634;5.566;2022-12-18T19:28:41;33.67;;;19.35;;
62268;SDS011;56517;51.634;5.566;2022-12-18T19:33:42;43.67;;;20.73;;
62268;SDS011;56517;51.634;5.566;2022-12-18T19:38:43;37.58;;;20.58;;
62268;SDS011;56517;51.634;5.566;2022-12-18T19:43:44;38.00;;;20.40;;
62268;SDS011;56517;51.634;5.566;2022-12-18T19:48:45;45.28;;;19.50;;
62268;SDS011;56517;51.634;5.566;2022-12-18T19:53:45;45.55;;;21.98;;
62268;SDS011;56517;51.634;5.566;2022-12-18T19:58:46;47.60;;;21.08;;
62268;SDS011;56517;51.634;5.566;2022-12-18T20:03:47;42.15;;;22.33;;
62268;SDS011;56517;51.634;5.566;2022-12-18T20:08:48;46.95;;;24.38;;
62268;SDS011;56517;51.634;5.566;2022-12-18T20:13:49;54.33;;;24.42;;
62268;SDS011;56517;51.634;5.566;2022-12-18T20:18:50;37.65;;;18.65;;
62268;SDS011;56517;51.634;5.566;2022-12-18T20:23:50;49.13;;;23.80;;
62268;SDS011;56517;51.634;5.566;2022-12-18T20:28:51;49.28;;;24.75;;
62268;SDS011;56517;51.634;5.566;2022-12-18T20:33:52;44.60;;;23.70;;
62268;SDS011;56517;51.634;5.566;2022-12-18T20:38:52;52.40;;;26.02;;
62268;SDS011;56517;51.634;5.566;2022-12-18T20:43:53;59.08;;;26.90;;
62268;SDS011;56517;51.634;5.566;2022-12-18T20:48:56;49.90;;;23.15;;
62268;SDS011;56517;51.634;5.566;2022-12-18T20:53:57;51.08;;;24.25;;
62268;SDS011;56517;51.634;5.566;2022-12-18T20:58:58;57.78;;;25.48;;
62268;SDS011;56517;51.634;5.566;2022-12-18T21:03:59;44.50;;;24.02;;
62268;SDS011;56517;51.634;5.566;2022-12-18T21:08:59;55.95;;;27.02;;
62268;SDS011;56517;51.634;5.566;2022-12-18T21:14:19;45.33;;;24.20;;
62268;SDS011;56517;51.634;5.566;2022-12-18T21:19:21;46.80;;;24.60;;
62268;SDS011;56517;51.634;5.566;2022-12-18T21:24:22;45.17;;;20.83;;
62268;SDS011;56517;51.634;5.566;2022-12-18T21:29:24;55.58;;;26.40;;
62268;SDS011;56517;51.634;5.566;2022-12-18T21:34:26;60.08;;;27.25;;
62268;SDS011;56517;51.634;5.566;2022-12-18T21:39:27;56.47;;;27.48;;
62268;SDS011;56517;51.634;5.566;2022-12-18T21:44:28;48.15;;;24.80;;
62268;SDS011;56517;51.634;5.566;2022-12-18T21:49:29;63.70;;;28.55;;
62268;SDS011;56517;51.634;5.566;2022-12-18T21:54:29;62.30;;;26.02;;
62268;SDS011;56517;51.634;5.566;2022-12-18T21:59:33;66.22;;;32.53;;
62268;SDS011;56517;51.634;5.566;2022-12-18T22:04:34;70.30;;;30.95;;
62268;SDS011;56517;51.634;5.566;2022-12-18T22:09:35;64.90;;;30.15;;
62268;SDS011;56517;51.634;5.566;2022-12-18T22:14:35;56.80;;;27.77;;
62268;SDS011;56517;51.634;5.566;2022-12-18T22:19:36;61.15;;;26.95;;
62268;SDS011;56517;51.634;5.566;2022-12-18T22:24:36;59.33;;;26.77;;
62268;SDS011;56517;51.634;5.566;2022-12-18T22:29:37;77.60;;;29.95;;
62268;SDS011;56517;51.634;5.566;2022-12-18T22:34:37;54.15;;;26.85;;
62268;SDS011;56517;51.634;5.566;2022-12-18T22:39:38;63.28;;;27.45;;
62268;SDS011;56517;51.634;5.566;2022-12-18T22:44:39;67.30;;;31.67;;
62268;SDS011;56517;51.634;5.566;2022-12-18T22:49:39;71.60;;;30.58;;
62268;SDS011;56517;51.634;5.566;2022-12-18T22:54:40;68.68;;;27.55;;
62268;SDS011;56517;51.634;5.566;2022-12-18T22:59:40;61.33;;;25.58;;
62268;SDS011;56517;51.634;5.566;2022-12-18T23:04:41;51.60;;;24.42;;
62268;SDS011;56517;51.634;5.566;2022-12-18T23:09:41;62.13;;;29.50;;
62268;SDS011;56517;51.634;5.566;2022-12-18T23:14:42;76.80;;;31.30;;
62268;SDS011;56517;51.634;5.566;2022-12-18T23:19:42;79.28;;;31.92;;
62268;SDS011;56517;51.634;5.566;2022-12-18T23:24:43;71.18;;;31.20;;
62268;SDS011;56517;51.634;5.566;2022-12-18T23:29:44;80.13;;;33.00;;
62268;SDS011;56517;51.634;5.566;2022-12-18T23:34:44;68.15;;;27.98;;
62268;SDS011;56517;51.634;5.566;2022-12-18T23:39:45;67.25;;;28.50;;
62268;SDS011;56517;51.634;5.566;2022-12-18T23:44:46;85.78;;;34.03;;
62268;SDS011;56517;51.634;5.566;2022-12-18T23:49:46;71.72;;;28.50;;
62268;SDS011;56517;51.634;5.566;2022-12-18T23:54:47;79.93;;;30.85;;
62268;SDS011;56517;51.634;5.566;2022-12-18T23:59:47;69.22;;;29.73;;
